createdAt,value
2018-11-10T00:02:22.672Z,15.13
2018-11-10T00:04:51.388Z,11.13
2018-11-10T00:07:20.262Z,14.27
2018-11-10T00:09:49.041Z,12.50
2018-11-10T00:12:17.848Z,12.73
2018-11-10T00:14:46.687Z,13.83
2018-11-10T00:17:15.651Z,12.80
2018-11-10T00:19:44.648Z,10.77
2018-11-10T00:22:13.532Z,11.10
2018-11-10T00:24:42.235Z,15.23
2018-11-10T00:27:11.579Z,11.00
2018-11-10T00:29:40.396Z,11.13
2018-11-10T00:32:09.486Z,8.53
2018-11-10T00:34:38.336Z,7.73
2018-11-10T00:37:07.884Z,7.43
2018-11-10T00:39:36.778Z,6.00
2018-11-10T00:42:06.720Z,8.07
2018-11-10T00:44:35.430Z,8.57
2018-11-10T00:47:04.780Z,7.67
2018-11-10T00:49:33.894Z,7.80
2018-11-10T00:52:03.188Z,7.80
2018-11-10T00:54:31.969Z,8.23
2018-11-10T00:57:01.470Z,9.97
2018-11-10T00:59:30.892Z,8.43
2018-11-10T01:02:00.300Z,10.23
2018-11-10T01:04:29.356Z,13.63
2018-11-10T01:06:58.093Z,10.33
2018-11-10T01:09:26.859Z,8.03
2018-11-10T01:11:56.275Z,10.27
2018-11-10T01:14:25.055Z,9.63
2018-11-10T01:16:54.328Z,9.03
2018-11-10T01:19:23.421Z,9.30
2018-11-10T01:21:52.582Z,9.87
2018-11-10T01:24:21.307Z,7.50
2018-11-10T01:26:50.139Z,10.17
2018-11-10T01:29:19.136Z,8.97
2018-11-10T01:31:48.384Z,8.60
2018-11-10T01:34:17.179Z,10.23
2018-11-10T01:36:46.369Z,12.77
2018-11-10T01:39:15.128Z,9.20
2018-11-10T01:41:44.042Z,11.13
2018-11-10T01:44:12.960Z,11.03
2018-11-10T01:46:44.711Z,12.00
2018-11-10T01:49:13.829Z,11.67
2018-11-10T01:51:42.705Z,17.53
2018-11-10T01:54:11.548Z,13.93
2018-11-10T01:56:40.259Z,15.07
2018-11-10T01:59:09.524Z,13.07
2018-11-10T02:01:38.279Z,16.67
2018-11-10T02:04:07.153Z,14.67
2018-11-10T02:06:36.190Z,16.53
2018-11-10T02:09:07.115Z,15.70
2018-11-10T02:11:36.178Z,20.30
2018-11-10T02:14:05.342Z,14.90
2018-11-10T02:16:34.512Z,14.73
2018-11-10T02:19:03.638Z,13.60
2018-11-10T02:21:32.933Z,14.57
2018-11-10T02:24:01.757Z,14.90
2018-11-10T02:26:31.035Z,13.23
2018-11-10T02:28:59.949Z,12.93
2018-11-10T02:31:28.851Z,16.13
2018-11-10T02:33:57.657Z,14.60
2018-11-10T02:36:26.595Z,15.40
2018-11-10T02:38:55.751Z,14.90
2018-11-10T02:41:24.782Z,14.07
2018-11-10T02:43:53.820Z,14.50
2018-11-10T02:46:22.876Z,13.23
2018-11-10T02:48:51.768Z,14.93
2018-11-10T02:51:20.932Z,13.40
2018-11-10T02:53:49.877Z,12.77
2018-11-10T02:56:18.942Z,15.07
2018-11-10T02:58:47.894Z,13.57
2018-11-10T03:01:16.969Z,12.30
2018-11-10T03:03:46.331Z,13.23
2018-11-10T03:06:15.262Z,13.73
2018-11-10T03:08:44.603Z,12.77
2018-11-10T03:11:13.439Z,11.77
2018-11-10T03:13:42.787Z,13.07
2018-11-10T03:16:11.830Z,14.37
2018-11-10T03:18:40.962Z,12.13
2018-11-10T03:21:09.893Z,12.47
2018-11-10T03:23:38.950Z,13.53
2018-11-10T03:26:07.867Z,13.47
2018-11-10T03:28:36.861Z,11.47
2018-11-10T03:31:06.098Z,15.27
2018-11-10T03:33:34.893Z,13.20
2018-11-10T03:36:03.813Z,13.27
2018-11-10T03:38:32.916Z,14.77
2018-11-10T03:41:01.866Z,12.97
2018-11-10T03:43:30.787Z,12.60
2018-11-10T03:45:59.922Z,12.67
2018-11-10T03:48:28.905Z,10.87
2018-11-10T03:50:57.885Z,10.70
2018-11-10T03:53:26.786Z,9.03
2018-11-10T03:55:55.829Z,13.00
2018-11-10T03:58:24.720Z,12.10
2018-11-10T04:00:53.670Z,11.40
2018-11-10T04:03:22.619Z,10.90
2018-11-10T04:05:51.663Z,12.63
2018-11-10T04:08:20.693Z,10.00
2018-11-10T04:10:49.419Z,9.37
2018-11-10T04:13:18.298Z,9.20
2018-11-10T04:15:47.340Z,10.20
2018-11-10T04:18:16.526Z,10.23
2018-11-10T04:20:45.510Z,9.53
2018-11-10T04:23:14.429Z,9.87
2018-11-10T04:25:43.766Z,9.03
2018-11-10T04:28:12.579Z,6.67
2018-11-10T04:30:41.602Z,7.43
2018-11-10T04:33:10.352Z,8.13
2018-11-10T04:35:39.191Z,7.57
2018-11-10T04:38:08.184Z,6.97
2018-11-10T04:40:37.003Z,8.03
2018-11-10T04:43:05.922Z,9.57
2018-11-10T04:45:34.996Z,7.87
2018-11-10T04:48:03.947Z,6.37
2018-11-10T04:50:32.749Z,7.03
2018-11-10T04:53:01.563Z,8.10
2018-11-10T04:55:30.258Z,6.63
2018-11-10T04:57:59.043Z,7.77
2018-11-10T05:00:27.942Z,7.07
2018-11-10T05:02:56.773Z,6.10
2018-11-10T05:05:25.858Z,5.40
2018-11-10T05:07:54.893Z,5.83
2018-11-10T05:10:23.748Z,6.23
2018-11-10T05:12:53.006Z,8.57
2018-11-10T05:15:22.053Z,7.17
2018-11-10T05:17:50.847Z,6.27
2018-11-10T05:20:19.887Z,5.27
2018-11-10T05:22:48.656Z,5.80
2018-11-10T05:25:17.975Z,6.00
2018-11-10T05:27:47.018Z,8.80
2018-11-10T05:30:16.147Z,5.30
2018-11-10T05:32:44.794Z,6.40
2018-11-10T05:35:13.617Z,6.03
2018-11-10T05:37:42.483Z,5.57
2018-11-10T05:40:12.003Z,6.20
2018-11-10T05:42:41.097Z,5.60
2018-11-10T05:45:10.386Z,7.57
2018-11-10T05:47:39.434Z,7.97
2018-11-10T05:50:09.125Z,5.63
2018-11-10T05:52:38.019Z,6.47
2018-11-10T05:55:08.001Z,6.70
2018-11-10T05:57:37.030Z,8.13
2018-11-10T06:00:08.277Z,7.87
2018-11-10T06:02:37.237Z,7.03
2018-11-10T06:05:06.051Z,6.83
2018-11-10T06:07:35.073Z,8.23
2018-11-10T06:10:04.173Z,8.30
2018-11-10T06:12:33.172Z,6.43
2018-11-10T06:15:02.010Z,6.77
2018-11-10T06:17:30.717Z,10.23
2018-11-10T06:19:59.587Z,7.20
2018-11-10T06:22:28.523Z,7.43
2018-11-10T06:24:57.269Z,8.70
2018-11-10T06:27:26.126Z,11.43
2018-11-10T06:29:54.980Z,9.10
2018-11-10T06:32:23.900Z,9.03
2018-11-10T06:34:52.835Z,8.30
2018-11-10T06:37:21.762Z,10.97
2018-11-10T06:39:50.732Z,8.27
2018-11-10T06:42:19.615Z,6.13
2018-11-10T06:44:48.447Z,8.07
2018-11-10T06:47:17.231Z,9.27
2018-11-10T06:49:46.001Z,6.47
2018-11-10T06:52:14.785Z,8.10
2018-11-10T06:54:43.720Z,8.30
2018-11-10T06:57:12.770Z,9.93
2018-11-10T06:59:41.657Z,8.17
2018-11-10T07:02:10.551Z,7.10
2018-11-10T07:04:39.206Z,8.57
2018-11-10T07:07:08.168Z,9.83
2018-11-10T07:09:36.940Z,8.53
2018-11-10T07:12:06.252Z,10.03
2018-11-10T07:14:35.081Z,7.40
2018-11-10T07:17:04.021Z,8.10
2018-11-10T07:19:32.962Z,7.00
2018-11-10T07:22:01.838Z,7.67
2018-11-10T07:24:30.707Z,8.10
2018-11-10T07:26:59.761Z,8.10
2018-11-10T07:29:28.680Z,10.87
2018-11-10T07:31:57.361Z,7.87
2018-11-10T07:34:26.304Z,9.03
2018-11-10T07:36:55.080Z,8.27
2018-11-10T07:39:23.806Z,8.23
2018-11-10T07:41:52.489Z,7.57
2018-11-10T07:44:21.280Z,7.53
2018-11-10T07:46:50.305Z,7.23
2018-11-10T07:49:19.276Z,8.80
2018-11-10T07:51:48.309Z,7.33
2018-11-10T07:54:17.103Z,9.80
2018-11-10T07:56:45.947Z,8.47
2018-11-10T07:59:15.047Z,10.53
2018-11-10T08:01:44.136Z,9.83
2018-11-10T08:04:13.262Z,10.10
2018-11-10T08:06:42.315Z,10.27
2018-11-10T08:09:11.533Z,12.13
2018-11-10T08:11:40.716Z,11.83
2018-11-10T08:14:10.071Z,12.00
2018-11-10T08:16:38.998Z,10.13
2018-11-10T08:19:08.545Z,10.17
2018-11-10T08:21:37.738Z,10.77
2018-11-10T08:24:07.153Z,9.50
2018-11-10T08:26:35.931Z,10.03
2018-11-10T08:29:05.264Z,8.97
2018-11-10T08:31:34.253Z,9.03
2018-11-10T08:34:03.144Z,9.70
2018-11-10T08:36:32.140Z,10.77
2018-11-10T08:39:01.011Z,10.93
2018-11-10T08:41:29.889Z,9.83
2018-11-10T08:43:58.737Z,10.37
2018-11-10T08:46:27.401Z,9.53
2018-11-10T08:48:56.059Z,9.67
2018-11-10T08:51:25.060Z,10.40
2018-11-10T08:53:54.144Z,8.13
2018-11-10T08:56:22.991Z,8.50
2018-11-10T08:58:51.786Z,6.77
2018-11-10T09:01:20.736Z,7.70
2018-11-10T09:03:49.538Z,7.40
2018-11-10T09:06:18.277Z,6.67
2018-11-10T09:08:47.208Z,6.07
2018-11-10T09:11:16.107Z,5.97
2018-11-10T09:13:44.903Z,5.57
2018-11-10T09:16:13.771Z,6.57
2018-11-10T09:18:42.847Z,6.67
2018-11-10T09:21:11.797Z,5.10
2018-11-10T09:23:40.456Z,6.47
2018-11-10T09:26:09.161Z,7.67
2018-11-10T09:28:38.240Z,4.50
2018-11-10T09:31:07.176Z,6.23
2018-11-10T09:33:36.111Z,8.33
2018-11-10T09:36:05.196Z,8.87
2018-11-10T09:38:34.293Z,6.97
2018-11-10T09:41:03.519Z,7.50
2018-11-10T09:43:32.336Z,9.97
2018-11-10T09:46:01.531Z,8.80
2018-11-10T09:48:30.511Z,7.87
2018-11-10T09:50:59.423Z,8.80
2018-11-10T09:53:28.264Z,6.50
2018-11-10T09:55:57.102Z,6.80
2018-11-10T09:58:26.142Z,13.60
2018-11-10T10:00:55.155Z,9.10
2018-11-10T10:03:23.934Z,8.60
2018-11-10T10:06:23.190Z,11.17
2018-11-10T10:08:52.216Z,10.07
2018-11-10T10:11:21.301Z,8.93
2018-11-10T10:13:52.347Z,7.30
2018-11-10T10:16:21.267Z,8.80
2018-11-10T10:18:50.568Z,8.03
2018-11-10T10:21:19.409Z,7.57
2018-11-10T10:23:48.544Z,10.20
2018-11-10T10:26:17.601Z,8.47
2018-11-10T10:28:46.591Z,7.27
2018-11-10T10:31:15.753Z,7.97
2018-11-10T10:33:44.667Z,14.10
2018-11-10T10:36:13.575Z,9.37
2018-11-10T10:38:42.297Z,10.73
2018-11-10T10:41:11.239Z,7.23
2018-11-10T10:43:40.391Z,9.43
2018-11-10T10:46:09.226Z,9.40
2018-11-10T10:48:38.070Z,8.23
2018-11-10T10:51:07.300Z,9.03
2018-11-10T10:53:36.142Z,8.83
2018-11-10T10:56:05.040Z,8.33
2018-11-10T10:58:33.766Z,12.53
2018-11-10T11:01:07.785Z,14.13
2018-11-10T11:03:41.785Z,13.73
2018-11-10T11:06:10.856Z,11.43
2018-11-10T11:08:39.666Z,11.40
2018-11-10T11:11:08.502Z,11.57
2018-11-10T11:13:37.475Z,9.87
2018-11-10T11:16:06.473Z,11.17
2018-11-10T11:18:35.252Z,11.60
2018-11-10T11:21:03.997Z,12.43
2018-11-10T11:23:32.678Z,11.63
2018-11-10T11:26:02.332Z,10.63
2018-11-10T11:28:31.177Z,12.50
2018-11-10T11:30:59.947Z,10.17
2018-11-10T11:33:28.721Z,10.60
2018-11-10T11:35:58.004Z,8.67
2018-11-10T11:38:27.224Z,10.77
2018-11-10T11:40:56.112Z,11.63
2018-11-10T11:43:25.342Z,12.77
2018-11-10T11:45:54.168Z,13.57
2018-11-10T11:48:23.163Z,9.07
2018-11-10T11:50:52.326Z,11.90
2018-11-10T11:53:21.473Z,13.37
2018-11-10T11:55:50.421Z,17.43
2018-11-10T11:58:19.484Z,10.30
2018-11-10T12:00:48.410Z,9.70
2018-11-10T12:03:17.525Z,14.83
2018-11-10T12:05:46.583Z,16.10
2018-11-10T12:08:15.622Z,11.43
2018-11-10T12:10:44.458Z,13.40
2018-11-10T12:13:13.537Z,14.93
2018-11-10T12:15:42.312Z,8.13
2018-11-10T12:18:11.136Z,8.50
2018-11-10T12:20:40.199Z,9.70
2018-11-10T12:23:09.003Z,12.00
2018-11-10T12:25:38.136Z,13.57
2018-11-10T12:28:06.921Z,9.57
2018-11-10T12:30:35.832Z,10.07
2018-11-10T12:33:04.812Z,12.87
2018-11-10T12:35:33.909Z,6.23
2018-11-10T12:38:02.711Z,8.87
2018-11-10T12:40:31.775Z,8.00
2018-11-10T12:43:00.923Z,7.43
2018-11-10T12:45:29.904Z,7.73
2018-11-10T12:47:59.029Z,8.97
2018-11-10T12:50:28.319Z,10.13
2018-11-10T12:52:57.445Z,7.47
2018-11-10T12:55:26.498Z,7.90
2018-11-10T12:57:55.788Z,7.97
2018-11-10T13:00:24.968Z,7.43
2018-11-10T13:02:54.505Z,11.93
2018-11-10T13:05:23.620Z,7.73
2018-11-10T13:07:52.747Z,8.93
2018-11-10T13:10:21.629Z,7.30
2018-11-10T13:12:50.623Z,8.80
2018-11-10T13:15:19.553Z,10.50
2018-11-10T13:17:48.795Z,8.97
2018-11-10T13:20:17.733Z,7.73
2018-11-10T13:22:46.667Z,7.90
2018-11-10T13:25:15.819Z,10.40
2018-11-10T13:27:44.902Z,7.87
2018-11-10T13:30:14.816Z,7.83
2018-11-10T13:32:43.896Z,7.90
2018-11-10T13:35:13.071Z,8.97
2018-11-10T13:37:41.859Z,8.90
2018-11-10T13:40:11.345Z,9.57
2018-11-10T13:42:40.259Z,9.60
2018-11-10T13:45:10.925Z,8.53
2018-11-10T13:47:39.823Z,12.53
2018-11-10T13:50:10.207Z,9.47
2018-11-10T13:52:40.133Z,9.53
2018-11-10T13:55:08.631Z,10.60
2018-11-10T13:57:37.258Z,10.40
2018-11-10T14:00:08.770Z,7.13
2018-11-10T14:02:37.753Z,9.90
2018-11-10T14:05:06.888Z,8.07
2018-11-10T14:07:35.921Z,9.10
2018-11-10T14:10:04.873Z,9.90
2018-11-10T14:12:33.769Z,9.67
2018-11-10T14:15:02.781Z,8.67
2018-11-10T14:17:31.772Z,9.23
2018-11-10T14:20:00.569Z,11.37
2018-11-10T14:22:29.351Z,8.77
2018-11-10T14:24:58.378Z,10.30
2018-11-10T14:27:27.524Z,9.70
2018-11-10T14:29:56.479Z,7.17
2018-11-10T14:32:25.194Z,10.07
2018-11-10T14:34:54.150Z,7.30
2018-11-10T14:37:23.000Z,8.23
2018-11-10T14:39:52.043Z,11.93
2018-11-10T14:42:20.819Z,8.63
2018-11-10T14:44:49.783Z,9.23
2018-11-10T14:47:18.782Z,9.27
2018-11-10T14:49:47.702Z,8.53
2018-11-10T14:52:16.662Z,8.27
2018-11-10T14:54:45.562Z,9.30
2018-11-10T14:57:14.723Z,8.97
2018-11-10T14:59:43.512Z,7.93
2018-11-10T15:02:12.591Z,7.90
2018-11-10T15:04:41.322Z,8.77
2018-11-10T15:07:10.235Z,11.70
2018-11-10T15:09:38.987Z,8.63
2018-11-10T15:12:08.112Z,9.30
2018-11-10T15:14:36.781Z,6.80
2018-11-10T15:17:05.561Z,10.00
2018-11-10T15:19:34.375Z,7.63
2018-11-10T15:22:03.263Z,11.03
2018-11-10T15:24:32.114Z,10.00
2018-11-10T15:27:01.018Z,6.77
2018-11-10T15:29:29.828Z,10.20
2018-11-10T15:31:58.772Z,8.23
2018-11-10T15:34:27.904Z,8.73
2018-11-10T15:36:57.160Z,8.80
2018-11-10T15:39:26.381Z,10.80
2018-11-10T15:41:55.628Z,10.83
2018-11-10T15:44:24.386Z,8.10
2018-11-10T15:46:53.372Z,8.07
2018-11-10T15:49:22.521Z,9.73
2018-11-10T15:51:51.357Z,8.17
2018-11-10T15:54:20.249Z,9.33
2018-11-10T15:56:49.194Z,10.43
2018-11-10T15:59:18.412Z,8.50
2018-11-10T16:01:47.450Z,8.47
2018-11-10T16:04:16.677Z,8.40
2018-11-10T16:06:45.679Z,8.53
2018-11-10T16:09:15.159Z,10.97
2018-11-10T16:11:44.736Z,9.23
2018-11-10T16:14:13.830Z,8.37
2018-11-10T16:16:42.848Z,10.70
2018-11-10T16:19:11.807Z,8.37
2018-11-10T16:21:40.839Z,8.60
2018-11-10T16:24:09.794Z,9.77
2018-11-10T16:26:38.633Z,7.47
2018-11-10T16:29:07.821Z,8.43
2018-11-10T16:31:36.707Z,9.27
2018-11-10T16:34:05.632Z,7.93
2018-11-10T16:36:34.762Z,10.10
2018-11-10T16:39:04.349Z,9.10
2018-11-10T16:41:33.250Z,9.97
2018-11-10T16:44:02.333Z,10.03
2018-11-10T16:46:31.134Z,10.30
2018-11-10T16:48:59.874Z,9.10
2018-11-10T16:51:28.753Z,7.97
2018-11-10T16:53:57.948Z,8.23
2018-11-10T16:56:26.865Z,7.70
2018-11-10T16:58:56.107Z,8.27
2018-11-10T17:01:25.724Z,9.50
2018-11-10T17:03:54.955Z,11.20
2018-11-10T17:06:24.106Z,9.20
2018-11-10T17:08:53.052Z,8.47
2018-11-10T17:11:22.115Z,11.13
2018-11-10T17:13:50.897Z,10.87
2018-11-10T17:16:20.007Z,10.10
2018-11-10T17:18:49.000Z,7.77
2018-11-10T17:21:17.890Z,9.30
2018-11-10T17:23:46.867Z,8.97
2018-11-10T17:26:16.275Z,7.63
2018-11-10T17:29:47.794Z,10.33
2018-11-10T17:32:16.667Z,7.70
2018-11-10T17:34:45.497Z,10.13
2018-11-10T17:37:14.421Z,10.37
2018-11-10T17:39:43.390Z,10.33
2018-11-10T17:42:12.332Z,13.10
2018-11-10T17:44:41.281Z,11.60
2018-11-10T17:47:10.088Z,12.03
2018-11-10T17:49:39.258Z,13.57
2018-11-10T17:52:08.167Z,12.07
2018-11-10T17:54:36.989Z,10.53
2018-11-10T17:57:05.675Z,8.67
2018-11-10T17:59:34.602Z,10.77
2018-11-10T18:02:03.577Z,11.33
2018-11-10T18:04:32.389Z,10.70
2018-11-10T18:07:01.601Z,6.90
2018-11-10T18:09:30.342Z,9.00
2018-11-10T18:11:59.062Z,7.93
2018-11-10T18:14:27.905Z,11.43
2018-11-10T18:16:57.821Z,8.03
2018-11-10T18:19:26.810Z,8.68
2018-11-10T18:21:55.856Z,11.63
2018-11-10T18:24:24.645Z,11.30
2018-11-10T18:26:53.995Z,7.93
2018-11-10T18:29:23.385Z,7.93
2018-11-10T18:31:52.765Z,8.07
2018-11-10T18:34:21.936Z,7.43
2018-11-10T18:36:51.008Z,9.97
2018-11-10T18:39:20.139Z,10.93
2018-11-10T18:41:49.084Z,7.83
2018-11-10T18:44:17.979Z,8.13
2018-11-10T18:46:46.638Z,10.07
2018-11-10T18:49:15.936Z,7.80
2018-11-10T18:51:45.388Z,9.07
2018-11-10T18:54:14.391Z,8.87
2018-11-10T18:56:43.191Z,7.07
2018-11-10T18:59:11.941Z,7.40
2018-11-10T19:01:41.046Z,8.57
2018-11-10T19:04:09.846Z,5.87
2018-11-10T19:06:38.722Z,7.97
2018-11-10T19:09:10.884Z,11.17
2018-11-10T19:11:40.249Z,12.50
2018-11-10T19:14:09.264Z,6.83
2018-11-10T19:16:38.195Z,13.83
2018-11-10T19:19:07.494Z,7.83
2018-11-10T19:21:36.263Z,9.63
2018-11-10T19:24:05.416Z,10.80
2018-11-10T19:26:34.081Z,6.47
2018-11-10T19:29:02.997Z,7.63
2018-11-10T19:31:31.688Z,6.47
2018-11-10T19:34:00.499Z,8.37
2018-11-10T19:36:29.639Z,7.30
2018-11-10T19:38:59.612Z,6.17
2018-11-10T19:41:28.576Z,7.13
2018-11-10T19:43:57.827Z,7.27
2018-11-10T19:46:27.026Z,5.43
2018-11-10T19:48:56.202Z,6.30
2018-11-10T19:51:25.482Z,7.03
2018-11-10T19:54:08.630Z,6.13
2018-11-10T19:56:37.321Z,6.40
2018-11-10T19:59:06.220Z,10.67
2018-11-10T20:01:35.663Z,6.33
2018-11-10T20:04:04.516Z,7.00
2018-11-10T20:06:33.614Z,10.40
2018-11-10T20:09:03.019Z,7.70
2018-11-10T20:11:32.358Z,5.87
2018-11-10T20:14:01.479Z,6.20
2018-11-10T20:16:30.910Z,8.23
2018-11-10T20:19:00.144Z,7.90
2018-11-10T20:21:29.189Z,9.47
2018-11-10T20:23:58.407Z,7.37
2018-11-10T20:26:27.291Z,7.43
2018-11-10T20:28:56.541Z,5.87
2018-11-10T20:31:25.713Z,8.70
2018-11-10T20:33:55.285Z,5.97
2018-11-10T20:36:24.476Z,7.90
2018-11-10T20:38:53.802Z,8.53
2018-11-10T20:41:22.849Z,11.90
2018-11-10T20:43:52.453Z,11.90
2018-11-10T20:46:21.460Z,11.67
2018-11-10T20:48:50.413Z,12.67
2018-11-10T20:51:19.937Z,8.80
2018-11-10T20:53:49.059Z,11.87
2018-11-10T20:56:18.477Z,11.30
2018-11-10T20:58:47.841Z,14.47
2018-11-10T21:01:17.371Z,10.50
2018-11-10T21:03:46.582Z,9.13
2018-11-10T21:06:15.575Z,8.13
2018-11-10T21:08:44.939Z,7.83
2018-11-10T21:11:13.958Z,8.43
2018-11-10T21:13:42.888Z,7.23
2018-11-10T21:16:12.034Z,8.00
2018-11-10T21:18:41.016Z,6.90
2018-11-10T21:21:09.949Z,9.33
2018-11-10T21:23:39.226Z,6.53
2018-11-10T21:26:08.201Z,8.30
2018-11-10T21:28:37.012Z,12.77
2018-11-10T21:31:07.251Z,9.07
2018-11-10T21:33:38.374Z,6.50
2018-11-10T21:36:07.293Z,8.97
2018-11-10T21:38:36.159Z,8.33
2018-11-10T21:41:04.990Z,7.37
2018-11-10T21:43:33.872Z,10.30
2018-11-10T21:46:03.351Z,9.30
2018-11-10T21:48:32.100Z,8.30
2018-11-10T21:51:00.834Z,10.03
2018-11-10T21:53:29.902Z,10.13
2018-11-10T21:55:58.676Z,7.97
2018-11-10T21:58:27.430Z,7.17
2018-11-10T22:00:56.234Z,9.83
2018-11-10T22:03:25.113Z,9.83
2018-11-10T22:05:54.004Z,10.13
2018-11-10T22:08:22.773Z,7.53
2018-11-10T22:10:51.588Z,6.40
2018-11-10T22:13:20.342Z,10.40
2018-11-10T22:15:49.438Z,8.47
2018-11-10T22:18:19.136Z,8.23
2018-11-10T22:20:48.762Z,11.00
2018-11-10T22:23:18.576Z,8.90
2018-11-10T22:25:47.801Z,12.43
2018-11-10T22:28:18.325Z,7.17
2018-11-10T22:30:47.466Z,11.80
2018-11-10T22:33:16.819Z,9.97
2018-11-10T22:35:45.680Z,7.63
2018-11-10T22:38:14.910Z,10.27
2018-11-10T22:40:44.020Z,9.20
2018-11-10T22:43:12.749Z,7.60
2018-11-10T22:45:42.048Z,8.10
2018-11-10T22:48:11.082Z,6.73
2018-11-10T22:50:40.898Z,11.30
2018-11-10T22:53:09.667Z,8.73
2018-11-10T22:55:38.566Z,16.17
2018-11-10T22:58:07.550Z,6.73
2018-11-10T23:00:40.841Z,11.20
2018-11-10T23:03:09.734Z,6.17
2018-11-10T23:05:39.536Z,7.63
2018-11-10T23:08:08.905Z,13.17
2018-11-10T23:10:38.676Z,12.87
2018-11-10T23:13:07.613Z,7.53
2018-11-10T23:15:36.758Z,9.30
2018-11-10T23:18:05.719Z,8.83
2018-11-10T23:20:34.661Z,7.07
2018-11-10T23:23:03.878Z,7.43
2018-11-10T23:25:32.747Z,9.40
2018-11-10T23:28:01.898Z,10.00
2018-11-10T23:30:30.834Z,8.23
2018-11-10T23:33:00.065Z,9.80
2018-11-10T23:35:29.138Z,9.27
2018-11-10T23:37:58.309Z,10.10
2018-11-10T23:40:27.754Z,11.40
2018-11-10T23:42:56.964Z,9.33
2018-11-10T23:45:26.099Z,10.67
2018-11-10T23:47:55.036Z,13.43
2018-11-10T23:50:24.069Z,8.30
2018-11-10T23:52:53.324Z,7.90
2018-11-10T23:55:22.905Z,12.60
2018-11-10T23:57:52.064Z,9.87
